Search for airport 
image banner adimage banner adimage banner ad
image banner ad

CA35 - San Rafael

Located in San Rafael, United States

ICAO - CA35, IATA -

Data provided by Airmate  

General information

Coordinates: N38°1'1" W122°31'15"
Elevation is 5 feet MSL.
Magnetic variation is 16° East
View others Airports in California

Operational data

Special qualification required
Current time UTC:
Current local time:
Weather at : KDVO - Gnoss Field ( 14 km )
METAR: KDVO 212355Z AUTO 12005KT 10SM CLR 35/08 A3001 RMK AO2
View NOTAMs / SUP AIP / TFR affecting this airport [VIEW]
Communications frequencies: [VIEW]

Runways:

RWY identifierQFULength (ft)Width (ft)SurfaceLDA (ft)
04270030ASPH
22270030ASPH

Airport contact information

Address: San Rafael United States

Satellite view of CA35